Gosforth, United Kingdom
Current Conditions -  °F | °C
As of 2:50 AM on Wednesday 26 Nov 2014 (Local Time) from EGNT Reporting Station
Light Rain Light Rain  
Wind Chill:   Ceiling: 3000
Heat Index:   Visibility: 5mi
Dew Point:   Wind: 2mph
Humidity: 100%   Direction: 300°WNW
Pressure: 30.06"   Gusts: NA
Location:  55°N, 1.62°W
Report Text: EGNT 260250Z 30002KT 8000 -RA FEW023 BKN030 03/03 Q1018
Loading
Personal Weather Stations






























Interactive Weather Map New forecast layout! Learn more

10-Day Weather Forecast

Advertisements
Track Severe Weather on mobile